createdAt,value
2019-05-01T00:00:29.677Z,16.60
2019-05-01T00:03:06.246Z,19.50
2019-05-01T00:05:40.297Z,17.00
2019-05-01T00:08:11.469Z,15.50
2019-05-01T00:10:41.453Z,17.50
2019-05-01T00:13:11.152Z,16.43
2019-05-01T00:15:41.532Z,16.57
2019-05-01T00:18:10.969Z,16.93
2019-05-01T00:20:40.357Z,17.70
2019-05-01T00:23:10.901Z,19.50
2019-05-01T00:25:40.278Z,27.03
2019-05-01T00:28:10.492Z,23.00
2019-05-01T00:30:40.090Z,18.03
2019-05-01T00:33:09.483Z,17.77
2019-05-01T00:35:39.511Z,24.53
2019-05-01T00:38:08.875Z,22.27
2019-05-01T00:40:38.990Z,24.50
2019-05-01T00:43:08.385Z,19.57
2019-05-01T00:45:37.733Z,21.27
2019-05-01T00:48:07.125Z,16.00
2019-05-01T00:50:36.529Z,18.17
2019-05-01T00:53:05.902Z,17.37
2019-05-01T00:55:39.666Z,22.67
2019-05-01T00:58:26.871Z,17.13
2019-05-01T01:01:04.040Z,20.87
2019-05-01T01:03:33.790Z,19.83
2019-05-01T01:06:04.783Z,24.43
2019-05-01T01:08:34.434Z,26.90
2019-05-01T01:11:03.810Z,20.37
2019-05-01T01:13:33.173Z,25.03
2019-05-01T01:16:02.638Z,21.33
2019-05-01T01:18:32.016Z,23.50
2019-05-01T01:21:01.465Z,28.30
2019-05-01T01:23:31.387Z,17.73
2019-05-01T01:26:02.924Z,16.83
2019-05-01T01:28:32.375Z,15.43
2019-05-01T01:31:01.771Z,16.60
2019-05-01T01:33:31.128Z,19.43
2019-05-01T01:36:01.062Z,22.20
2019-05-01T01:38:30.688Z,16.97
2019-05-01T01:41:00.209Z,18.37
2019-05-01T01:43:47.809Z,24.63
2019-05-01T01:46:19.073Z,20.50
2019-05-01T01:48:51.719Z,23.17
2019-05-01T01:51:21.771Z,26.07
2019-05-01T02:14:53.734Z,19.10
2019-05-01T02:17:23.124Z,27.20
2019-05-01T02:19:52.489Z,18.57
2019-05-01T02:22:21.867Z,20.97
2019-05-01T02:24:51.238Z,23.57
2019-05-01T02:27:25.709Z,21.73
2019-05-01T02:29:57.319Z,20.90
2019-05-01T02:32:29.334Z,27.13
2019-05-01T02:35:00.691Z,27.27
2019-05-01T02:37:32.359Z,27.17
2019-05-01T02:40:06.481Z,25.10
2019-05-01T02:42:40.104Z,28.93
2019-05-01T02:45:10.165Z,22.83
2019-05-01T02:47:40.262Z,20.03
2019-05-01T02:50:12.601Z,24.57
2019-05-01T02:52:44.587Z,22.53
2019-05-01T02:55:16.330Z,28.33
2019-05-01T02:57:47.553Z,29.37
2019-05-01T03:00:17.508Z,29.07
2019-05-01T03:02:47.514Z,23.10
2019-05-01T03:05:17.480Z,29.80
2019-05-01T03:07:47.507Z,20.47
2019-05-01T03:10:17.999Z,24.63
2019-05-01T03:12:50.095Z,23.90
2019-05-01T03:15:22.669Z,22.83
2019-05-01T03:17:59.950Z,20.30
2019-05-01T03:20:33.975Z,21.30
2019-05-01T03:23:21.756Z,22.13
2019-05-01T03:25:51.886Z,27.40
2019-05-01T03:28:22.846Z,26.83
2019-05-01T03:30:52.319Z,22.77
2019-05-01T03:33:21.907Z,20.47
2019-05-01T03:35:51.617Z,30.83
2019-05-01T03:38:21.306Z,24.47
2019-05-01T03:40:51.048Z,23.57
2019-05-01T03:43:21.418Z,22.20
2019-05-01T03:45:52.046Z,26.90
2019-05-01T03:48:21.751Z,33.23
2019-05-01T03:50:51.495Z,23.27
2019-05-01T03:53:21.162Z,27.10
2019-05-01T03:55:50.657Z,32.40
2019-05-01T03:58:20.676Z,25.60
2019-05-01T04:00:58.594Z,22.53
2019-05-01T04:03:30.166Z,24.40
2019-05-01T04:06:00.007Z,26.13
2019-05-01T04:08:29.963Z,30.27
2019-05-01T04:10:59.755Z,22.03
2019-05-01T04:13:29.217Z,28.20
2019-05-01T04:16:00.315Z,24.87
2019-05-01T04:18:30.435Z,22.90
2019-05-01T04:20:59.878Z,20.77
2019-05-01T04:23:29.505Z,24.63
2019-05-01T04:25:58.952Z,24.83
2019-05-01T04:28:31.078Z,27.77
2019-05-01T04:31:06.699Z,31.97
2019-05-01T04:33:38.206Z,33.97
2019-05-01T04:36:10.348Z,24.63
2019-05-01T04:38:39.992Z,27.60
2019-05-01T04:41:09.428Z,26.60
2019-05-01T04:43:39.311Z,31.33
2019-05-01T04:46:09.594Z,25.50
2019-05-01T04:48:39.343Z,26.43
2019-05-01T04:51:09.009Z,24.18
2019-05-01T04:53:39.060Z,28.83
2019-05-01T04:56:08.499Z,32.40
2019-05-01T04:58:38.136Z,29.80
2019-05-01T05:01:07.736Z,33.17
2019-05-01T05:03:37.729Z,32.57
2019-05-01T05:06:07.910Z,29.60
2019-05-01T05:08:37.797Z,32.87
2019-05-01T05:11:26.953Z,35.33
2019-05-01T05:14:13.386Z,31.03
2019-05-01T05:16:47.511Z,33.45
2019-05-01T05:19:17.019Z,31.30
2019-05-01T05:21:46.566Z,35.10
2019-05-01T05:24:16.168Z,32.60
2019-05-01T05:26:46.438Z,33.03
2019-05-01T05:29:19.602Z,34.80
2019-05-01T05:31:51.569Z,33.43
2019-05-01T05:34:25.294Z,41.27
2019-05-01T05:36:59.474Z,34.60
2019-05-01T05:39:38.459Z,31.37
2019-05-01T05:42:09.454Z,29.03
2019-05-01T05:44:39.155Z,33.50
2019-05-01T05:47:13.333Z,24.07
2019-05-01T05:49:42.903Z,33.70
2019-05-01T05:52:17.331Z,33.33
2019-05-01T05:55:00.636Z,38.97
2019-05-01T05:57:38.347Z,47.87
2019-05-01T06:00:13.099Z,33.40
2019-05-01T06:02:52.043Z,37.77
2019-05-01T06:05:30.205Z,38.17
2019-05-01T06:08:10.885Z,36.87
2019-05-01T06:10:44.472Z,37.90
2019-05-01T06:13:17.997Z,38.00
2019-05-01T06:15:49.289Z,40.13
2019-05-01T06:18:20.358Z,37.17
2019-05-01T06:20:51.710Z,39.73
2019-05-01T06:23:34.000Z,31.77
2019-05-01T06:26:09.046Z,37.80
2019-05-01T06:28:38.596Z,38.07
2019-05-01T06:31:22.918Z,39.07
2019-05-01T06:33:53.125Z,37.23
2019-05-01T06:36:23.883Z,41.77
2019-05-01T06:38:53.431Z,42.80
2019-05-01T06:41:28.809Z,43.13
2019-05-01T06:44:16.322Z,40.27
2019-05-01T06:46:48.478Z,36.63
2019-05-01T06:49:32.754Z,38.43
2019-05-01T06:52:05.531Z,37.10
2019-05-01T06:54:36.751Z,35.67
2019-05-01T06:57:07.958Z,40.03
2019-05-01T06:59:40.950Z,35.23
2019-05-01T07:02:16.105Z,40.33
2019-05-01T07:04:49.606Z,35.73
2019-05-01T07:07:25.820Z,47.27
2019-05-01T07:09:56.159Z,38.70
2019-05-01T07:12:30.059Z,40.17
2019-05-01T07:14:59.968Z,42.03
2019-05-01T07:17:30.154Z,44.77
2019-05-01T07:20:12.028Z,44.77
2019-05-01T07:22:42.161Z,40.83
2019-05-01T07:25:11.451Z,40.17
2019-05-01T07:27:40.894Z,42.90
2019-05-01T07:30:20.760Z,41.80
2019-05-01T07:32:50.560Z,37.83
2019-05-01T07:35:20.124Z,43.37
2019-05-01T07:37:50.663Z,41.47
2019-05-01T07:40:28.936Z,43.03
2019-05-01T07:42:57.638Z,43.00
2019-05-01T07:45:31.856Z,43.37
2019-05-01T07:48:05.573Z,41.47
2019-05-01T07:50:35.517Z,38.20
2019-05-01T07:53:05.887Z,37.97
2019-05-01T07:55:38.714Z,46.13
2019-05-01T07:58:15.214Z,37.40
2019-05-01T08:00:52.733Z,38.33
2019-05-01T08:03:22.484Z,39.13
2019-05-01T08:05:51.857Z,37.60
2019-05-01T08:08:21.233Z,39.10
2019-05-01T08:10:50.594Z,39.93
2019-05-01T08:13:19.962Z,38.40
2019-05-01T08:15:51.220Z,35.83
2019-05-01T08:18:24.013Z,35.47
2019-05-01T08:20:57.780Z,38.27
2019-05-01T08:23:27.820Z,35.87
2019-05-01T08:25:57.225Z,35.53
2019-05-01T08:28:44.377Z,34.87
2019-05-01T08:31:27.746Z,36.60
2019-05-01T08:33:58.279Z,35.50
2019-05-01T08:36:27.649Z,35.90
2019-05-01T08:38:57.082Z,36.43
2019-05-01T08:41:31.306Z,32.07
2019-05-01T08:43:57.861Z,37.90
2019-05-01T08:46:46.740Z,32.33
2019-05-01T08:49:25.426Z,33.90
2019-05-01T08:51:55.489Z,35.87
2019-05-01T08:54:28.859Z,31.47
2019-05-01T08:56:58.197Z,32.23
2019-05-01T08:59:27.104Z,30.97
2019-05-01T09:02:08.847Z,30.33
2019-05-01T09:04:30.433Z,28.03
2019-05-01T09:06:59.180Z,28.00
2019-05-01T09:09:29.256Z,30.40
2019-05-01T09:11:58.625Z,38.00
2019-05-01T09:14:29.779Z,33.73
2019-05-01T09:16:59.129Z,33.27
2019-05-01T09:19:28.509Z,29.63
2019-05-01T09:21:57.976Z,31.70
2019-05-01T09:24:28.296Z,27.73
2019-05-01T09:27:13.703Z,30.80
2019-05-01T09:29:46.919Z,28.17
2019-05-01T09:32:18.650Z,31.60
2019-05-01T09:34:47.274Z,31.33
2019-05-01T09:37:16.730Z,31.30
2019-05-01T09:39:47.418Z,31.40
2019-05-01T09:42:22.769Z,29.90
2019-05-01T09:44:48.783Z,28.47
2019-05-01T09:47:18.317Z,29.87
2019-05-01T09:49:48.860Z,29.43
2019-05-01T09:52:26.418Z,23.30
2019-05-01T09:54:57.453Z,31.97
2019-05-01T09:57:26.843Z,31.00
2019-05-01T09:59:56.212Z,28.30
2019-05-01T10:02:26.343Z,38.10
2019-05-01T10:04:55.701Z,29.03
2019-05-01T10:07:28.833Z,34.70
2019-05-01T10:09:56.291Z,32.03
2019-05-01T10:12:25.735Z,30.70
2019-05-01T10:14:55.195Z,29.97
2019-05-01T10:17:24.601Z,32.57
2019-05-01T10:19:53.990Z,26.77
2019-05-01T10:22:23.458Z,28.57
2019-05-01T10:24:52.998Z,28.40
2019-05-01T10:27:24.031Z,29.23
2019-05-01T10:30:10.914Z,28.90
2019-05-01T10:32:52.847Z,29.17
2019-05-01T10:35:42.369Z,25.90
2019-05-01T10:38:04.775Z,28.73
2019-05-01T10:40:34.964Z,24.50
2019-05-01T10:43:05.352Z,28.33
2019-05-01T10:45:34.724Z,26.20
2019-05-01T10:48:06.126Z,25.80
2019-05-01T10:50:35.519Z,25.90
2019-05-01T10:53:04.891Z,27.53
2019-05-01T10:55:34.279Z,28.07
2019-05-01T10:58:04.030Z,28.50
2019-05-01T11:00:35.919Z,23.53
2019-05-01T11:03:05.281Z,29.93
2019-05-01T11:05:34.708Z,25.65
2019-05-01T11:08:04.401Z,35.23
2019-05-01T11:10:33.766Z,29.70
2019-05-01T11:13:03.159Z,30.83
2019-05-01T11:15:32.580Z,26.00
2019-05-01T11:18:01.975Z,29.47
2019-05-01T11:20:34.353Z,35.53
2019-05-01T11:23:03.726Z,25.43
2019-05-01T11:25:33.364Z,28.63
2019-05-01T11:28:02.840Z,29.53
2019-05-01T11:30:32.288Z,26.40
2019-05-01T11:33:08.996Z,27.07
2019-05-01T11:35:49.112Z,26.43
2019-05-01T11:38:23.121Z,22.27
2019-05-01T11:40:54.168Z,24.77
2019-05-01T11:43:23.574Z,24.63
2019-05-01T11:45:53.040Z,27.20
2019-05-01T11:48:25.022Z,23.87
2019-05-01T11:50:54.135Z,24.33
2019-05-01T11:53:23.511Z,22.20
2019-05-01T11:55:52.887Z,23.73
2019-05-01T11:58:22.289Z,25.27
2019-05-01T12:00:53.304Z,27.67
2019-05-01T12:03:22.685Z,23.07
2019-05-01T12:05:52.803Z,21.93
2019-05-01T12:08:22.191Z,25.93
2019-05-01T12:10:51.572Z,19.63
2019-05-01T12:13:20.948Z,21.00
2019-05-01T12:15:51.969Z,26.93
2019-05-01T12:18:21.340Z,26.67
2019-05-01T12:20:50.746Z,28.03
2019-05-01T12:23:20.219Z,32.30
2019-05-01T12:25:49.607Z,25.13
2019-05-01T12:28:18.988Z,24.90
2019-05-01T12:30:48.372Z,25.83
2019-05-01T12:33:17.841Z,28.70
2019-05-01T12:35:48.882Z,20.47
2019-05-01T12:38:18.257Z,22.10
2019-05-01T12:40:49.284Z,21.43
2019-05-01T12:43:18.683Z,22.90
2019-05-01T12:45:49.707Z,27.13
2019-05-01T12:48:19.073Z,25.97
2019-05-01T12:50:50.101Z,36.10
2019-05-01T12:53:22.669Z,21.37
2019-05-01T12:56:09.013Z,27.13
2019-05-01T12:58:38.383Z,25.20
2019-05-01T13:01:07.749Z,24.83
2019-05-01T13:03:37.170Z,27.77
2019-05-01T13:06:06.548Z,23.33
2019-05-01T13:08:37.506Z,23.10
2019-05-01T13:11:06.946Z,23.20
2019-05-01T13:13:36.313Z,27.57
2019-05-01T13:16:05.827Z,23.55
2019-05-01T13:18:35.229Z,21.50
2019-05-01T13:21:04.622Z,25.73
2019-05-01T13:23:33.996Z,24.33
2019-05-01T13:26:05.087Z,30.97
2019-05-01T13:28:48.259Z,24.73
2019-05-01T13:31:28.182Z,29.40
2019-05-01T13:33:57.559Z,20.77
2019-05-01T13:36:27.680Z,25.50
2019-05-01T13:38:57.057Z,24.43
2019-05-01T13:41:26.432Z,27.73
2019-05-01T13:43:55.903Z,26.43
2019-05-01T13:46:25.293Z,23.53
2019-05-01T13:48:54.746Z,23.80
2019-05-01T13:51:24.118Z,23.70
2019-05-01T13:53:53.561Z,24.43
2019-05-01T13:56:23.501Z,24.10
2019-05-01T13:58:52.859Z,21.07
2019-05-01T14:01:22.496Z,22.87
2019-05-01T14:03:51.880Z,25.83
2019-05-01T14:06:21.344Z,24.33
2019-05-01T14:08:50.746Z,28.53
2019-05-01T14:11:20.186Z,30.50
2019-05-01T14:13:49.573Z,23.87
2019-05-01T14:16:19.038Z,24.73
2019-05-01T14:18:48.526Z,24.60
2019-05-01T14:21:22.221Z,24.50
2019-05-01T14:23:55.915Z,24.50
2019-05-01T14:26:25.279Z,30.03
2019-05-01T14:28:54.649Z,27.17
2019-05-01T14:31:24.673Z,27.03
2019-05-01T14:33:54.051Z,23.47
2019-05-01T14:36:23.444Z,20.37
2019-05-01T14:38:52.840Z,26.23
2019-05-01T14:41:22.275Z,21.93
2019-05-01T14:43:51.721Z,19.53
2019-05-01T14:46:21.185Z,26.57
2019-05-01T14:48:50.575Z,19.07
2019-05-01T14:51:21.754Z,22.60
2019-05-01T14:53:51.474Z,19.40
2019-05-01T14:56:20.864Z,19.70
2019-05-01T14:58:50.883Z,21.90
2019-05-01T15:01:20.357Z,18.70
2019-05-01T15:03:49.747Z,19.47
2019-05-01T15:06:19.624Z,17.97
2019-05-01T15:08:49.021Z,23.47
2019-05-01T15:11:18.410Z,14.50
2019-05-01T15:13:49.436Z,21.37
2019-05-01T15:16:23.597Z,19.67
2019-05-01T15:19:00.281Z,21.23
2019-05-01T15:21:29.650Z,19.57
2019-05-01T15:23:59.043Z,21.30
2019-05-01T15:26:31.304Z,22.37
2019-05-01T15:29:00.837Z,19.57
2019-05-01T15:31:30.987Z,23.60
2019-05-01T15:34:00.356Z,21.93
2019-05-01T15:36:32.424Z,22.23
2019-05-01T15:39:02.695Z,21.23
2019-05-01T15:41:33.715Z,21.17
2019-05-01T15:44:04.727Z,22.17
2019-05-01T15:46:36.547Z,24.87
2019-05-01T15:49:05.974Z,22.13
2019-05-01T15:51:35.351Z,29.67
2019-05-01T15:54:04.818Z,21.57
2019-05-01T15:56:34.207Z,21.87
2019-05-01T15:59:03.581Z,24.53
2019-05-01T16:01:33.642Z,23.70
2019-05-01T16:04:04.361Z,28.60
2019-05-01T16:06:33.720Z,25.03
2019-05-01T16:09:05.007Z,22.03
2019-05-01T16:11:52.452Z,22.80
2019-05-01T16:14:21.833Z,20.77
2019-05-01T16:16:51.217Z,21.43
2019-05-01T16:19:20.681Z,24.77
2019-05-01T16:21:53.212Z,21.17
2019-05-01T16:24:22.605Z,21.20
2019-05-01T16:26:51.994Z,20.30
2019-05-01T16:29:21.881Z,22.80
2019-05-01T16:31:51.260Z,24.20
2019-05-01T16:34:20.616Z,21.90
2019-05-01T16:36:50.061Z,27.07
2019-05-01T16:39:26.860Z,36.43
2019-05-01T16:41:56.204Z,24.43
2019-05-01T16:44:26.322Z,23.87
2019-05-01T16:46:55.691Z,23.00
2019-05-01T16:49:25.062Z,26.47
2019-05-01T16:51:54.540Z,24.03
2019-05-01T16:54:23.900Z,30.13
2019-05-01T16:56:53.335Z,27.93
2019-05-01T16:59:22.790Z,26.87
2019-05-01T17:01:54.119Z,31.70
2019-05-01T17:04:32.151Z,25.67
2019-05-01T17:07:03.172Z,28.03
2019-05-01T17:09:49.231Z,40.50
2019-05-01T17:12:20.302Z,32.83
2019-05-01T17:14:49.664Z,26.20
2019-05-01T17:17:20.018Z,28.63
2019-05-01T17:19:49.403Z,25.90
2019-05-01T17:22:18.755Z,25.87
2019-05-01T17:24:48.561Z,26.07
2019-05-01T17:27:19.849Z,31.07
2019-05-01T17:29:49.216Z,26.17
2019-05-01T17:32:19.168Z,24.17
2019-05-01T17:34:48.544Z,27.03
2019-05-01T17:37:17.929Z,23.30
2019-05-01T17:39:47.328Z,22.63
2019-05-01T17:42:16.722Z,23.97
2019-05-01T17:44:46.102Z,44.67
2019-05-01T17:47:17.946Z,23.07
2019-05-01T17:49:46.597Z,22.80
2019-05-01T17:52:15.961Z,22.90
2019-05-01T17:54:45.349Z,22.27
2019-05-01T17:57:14.703Z,28.23
2019-05-01T17:59:45.704Z,23.80
2019-05-01T18:02:17.107Z,31.70
2019-05-01T18:04:50.811Z,27.67
2019-05-01T18:07:21.011Z,20.17
2019-05-01T18:09:51.379Z,18.17
2019-05-01T18:12:23.295Z,20.43
2019-05-01T18:14:52.687Z,19.27
2019-05-01T18:17:22.150Z,19.63
2019-05-01T18:19:51.524Z,22.47
2019-05-01T18:22:22.513Z,20.33
2019-05-01T18:25:09.489Z,23.00
2019-05-01T18:27:56.315Z,18.33
2019-05-01T18:30:30.397Z,21.53
2019-05-01T18:32:59.770Z,21.67
2019-05-01T18:35:32.214Z,23.50
2019-05-01T18:38:06.157Z,23.27
2019-05-01T18:40:42.170Z,22.07
2019-05-01T18:43:11.813Z,21.87
2019-05-01T18:45:50.822Z,23.03
2019-05-01T18:48:22.010Z,21.47
2019-05-01T18:50:55.055Z,20.40
2019-05-01T18:53:23.763Z,25.30
2019-05-01T18:55:53.462Z,20.03
2019-05-01T18:58:23.011Z,21.67
2019-05-01T19:00:52.520Z,19.13
2019-05-01T19:03:22.501Z,23.47
2019-05-01T19:05:52.091Z,20.47
2019-05-01T19:08:21.518Z,22.20
2019-05-01T19:10:51.025Z,30.37
2019-05-01T19:13:20.476Z,36.30
2019-05-01T19:15:49.870Z,31.37
2019-05-01T19:18:19.729Z,23.83
2019-05-01T19:20:59.427Z,26.03
2019-05-01T19:23:22.358Z,22.63
2019-05-01T19:25:51.687Z,23.27
2019-05-01T19:28:21.150Z,24.83
2019-05-01T19:30:52.287Z,24.60
2019-05-01T19:33:22.382Z,24.43
2019-05-01T19:35:51.786Z,24.67
2019-05-01T19:38:21.480Z,26.60
2019-05-01T19:40:50.951Z,29.80
2019-05-01T19:43:20.332Z,30.17
2019-05-01T19:45:49.794Z,31.97
2019-05-01T19:48:19.256Z,27.60
2019-05-01T19:50:49.594Z,28.27
2019-05-01T19:53:19.140Z,25.30
2019-05-01T19:55:48.597Z,34.60
2019-05-01T19:58:17.959Z,36.73
2019-05-01T20:00:54.149Z,45.03
2019-05-01T20:03:23.680Z,43.20
2019-05-01T20:05:53.126Z,39.23
2019-05-01T20:08:22.617Z,43.40
2019-05-01T20:10:52.807Z,43.37
2019-05-01T20:13:25.092Z,41.17
2019-05-01T20:15:54.614Z,36.03
2019-05-01T20:18:24.153Z,37.17
2019-05-01T20:20:53.509Z,42.93
2019-05-01T20:23:26.048Z,41.77
2019-05-01T20:25:55.984Z,38.97
2019-05-01T20:28:25.581Z,43.00
2019-05-01T20:30:54.952Z,38.17
2019-05-01T20:33:24.340Z,39.97
2019-05-01T20:35:53.731Z,35.50
2019-05-01T20:38:23.112Z,37.63
2019-05-01T20:40:52.615Z,47.77
2019-05-01T20:43:21.989Z,44.73
2019-05-01T20:45:51.423Z,43.30
2019-05-01T20:48:23.662Z,48.40
2019-05-01T20:50:52.294Z,44.87
2019-05-01T20:53:21.723Z,42.50
2019-05-01T20:55:52.757Z,38.87
2019-05-01T20:58:22.395Z,41.70
2019-05-01T21:00:54.772Z,46.40
2019-05-01T21:03:24.481Z,41.03
2019-05-01T21:06:02.889Z,43.00
2019-05-01T21:08:39.291Z,48.10
2019-05-01T21:11:11.246Z,42.50
2019-05-01T21:13:43.512Z,50.83
2019-05-01T21:16:14.242Z,50.13
2019-05-01T21:18:43.610Z,47.90
2019-05-01T21:21:14.439Z,42.33
2019-05-01T21:23:48.103Z,51.60
2019-05-01T21:26:14.939Z,50.80
2019-05-01T21:28:44.972Z,44.97
2019-05-01T21:31:14.488Z,41.23
2019-05-01T21:33:46.403Z,53.23
2019-05-01T21:36:15.083Z,43.37
2019-05-01T21:38:44.463Z,59.03
2019-05-01T21:41:14.997Z,54.17
2019-05-01T21:43:44.962Z,56.20
2019-05-01T21:46:14.335Z,56.87
2019-05-01T21:48:43.702Z,52.33
2019-05-01T21:51:13.103Z,47.50
2019-05-01T21:53:46.263Z,46.90
2019-05-01T21:56:13.563Z,40.30
2019-05-01T21:58:45.211Z,54.87
2019-05-01T22:01:14.817Z,50.47
2019-05-01T22:03:44.179Z,54.50
2019-05-01T22:06:15.361Z,50.00
2019-05-01T22:08:44.647Z,42.60
2019-05-01T22:11:14.011Z,58.00
2019-05-01T22:13:43.413Z,54.87
2019-05-01T22:16:18.432Z,51.50
2019-05-01T22:18:57.831Z,40.87
2019-05-01T22:21:28.924Z,41.40
2019-05-01T22:24:12.075Z,58.57
2019-05-01T22:26:43.065Z,54.93
2019-05-01T22:29:14.211Z,51.57
2019-05-01T22:31:52.818Z,48.90
2019-05-01T22:34:23.896Z,52.63
2019-05-01T22:36:53.338Z,110.70
2019-05-01T22:39:24.912Z,83.83
2019-05-01T22:41:54.290Z,72.43
2019-05-01T22:44:23.664Z,61.03
2019-05-01T22:46:53.064Z,66.10
2019-05-01T22:49:22.450Z,50.70
2019-05-01T22:51:51.921Z,59.67
2019-05-01T22:54:21.392Z,64.93
2019-05-01T22:56:50.765Z,53.28
2019-05-01T22:59:20.132Z,58.90
2019-05-01T23:01:53.044Z,47.60
2019-05-01T23:04:23.043Z,49.43
2019-05-01T23:06:52.500Z,48.10
2019-05-01T23:09:27.859Z,51.37
2019-05-01T23:11:54.460Z,45.27
2019-05-01T23:14:25.722Z,43.30
2019-05-01T23:16:58.667Z,53.90
2019-05-01T23:19:29.674Z,50.70
2019-05-01T23:22:00.635Z,57.80
2019-05-01T23:24:30.039Z,44.77
2019-05-01T23:26:59.396Z,44.97
2019-05-01T23:29:28.791Z,45.17
2019-05-01T23:31:59.052Z,47.10
2019-05-01T23:34:28.410Z,56.53
2019-05-01T23:36:57.797Z,53.20
2019-05-01T23:39:27.179Z,43.03
2019-05-01T23:41:56.554Z,46.40
2019-05-01T23:44:25.962Z,43.87
2019-05-01T23:46:55.340Z,56.97
2019-05-01T23:49:24.707Z,44.80
2019-05-01T23:51:54.087Z,56.90
2019-05-01T23:54:23.879Z,44.63
2019-05-01T23:56:53.260Z,39.87
2019-05-01T23:59:22.606Z,45.27
